createdAt,value
2018-12-20T00:01:20.838Z,15.33
2018-12-20T00:03:48.459Z,16.27
2018-12-20T00:06:16.315Z,15.13
2018-12-20T00:08:43.952Z,15.80
2018-12-20T00:11:11.631Z,16.33
2018-12-20T00:13:39.280Z,16.70
2018-12-20T00:16:06.906Z,16.93
2018-12-20T00:18:34.451Z,17.60
2018-12-20T00:21:02.028Z,16.80
2018-12-20T00:23:29.578Z,17.70
2018-12-20T00:25:57.233Z,18.83
2018-12-20T00:28:24.820Z,17.57
2018-12-20T00:30:52.384Z,16.90
2018-12-20T00:33:20.010Z,17.93
2018-12-20T00:35:47.614Z,18.13
2018-12-20T00:38:15.228Z,18.50
2018-12-20T00:40:42.877Z,18.00
2018-12-20T00:43:10.622Z,18.27
2018-12-20T00:45:38.215Z,17.17
2018-12-20T00:48:05.874Z,16.77
2018-12-20T00:50:33.467Z,16.87
2018-12-20T00:53:01.011Z,16.33
2018-12-20T00:55:28.582Z,17.07
2018-12-20T00:57:56.122Z,17.30
2018-12-20T01:00:23.794Z,17.23
2018-12-20T01:02:55.169Z,16.43
2018-12-20T01:05:20.986Z,17.77
2018-12-20T01:07:48.624Z,17.23
2018-12-20T01:10:16.363Z,17.43
2018-12-20T01:12:44.032Z,15.53
2018-12-20T01:15:11.729Z,15.90
2018-12-20T01:17:39.425Z,15.83
2018-12-20T01:20:08.472Z,16.93
2018-12-20T01:22:36.191Z,17.03
2018-12-20T01:25:04.313Z,17.10
2018-12-20T01:27:31.984Z,16.63
2018-12-20T01:29:59.628Z,16.00
2018-12-20T01:32:27.330Z,15.60
2018-12-20T01:34:55.010Z,17.03
2018-12-20T01:37:22.559Z,16.77
2018-12-20T01:39:50.278Z,16.83
2018-12-20T01:42:17.942Z,16.17
2018-12-20T01:44:53.334Z,16.73
2018-12-20T01:47:15.196Z,17.30
2018-12-20T01:49:42.903Z,16.93
2018-12-20T01:52:10.627Z,16.20
2018-12-20T01:54:38.297Z,15.47
2018-12-20T01:57:06.083Z,15.57
2018-12-20T01:59:33.775Z,16.60
2018-12-20T02:02:01.493Z,15.43
2018-12-20T02:04:29.182Z,16.97
2018-12-20T02:06:56.962Z,15.23
2018-12-20T02:09:24.618Z,17.63
2018-12-20T02:11:52.394Z,16.53
2018-12-20T02:14:20.017Z,16.33
2018-12-20T02:16:47.871Z,14.97
2018-12-20T02:19:15.554Z,15.07
2018-12-20T02:21:43.149Z,15.13
2018-12-20T02:24:10.771Z,16.23
2018-12-20T02:26:38.471Z,15.23
2018-12-20T02:29:06.195Z,15.50
2018-12-20T02:31:33.843Z,15.30
2018-12-20T02:34:01.515Z,16.00
2018-12-20T02:36:29.238Z,16.20
2018-12-20T02:38:57.007Z,15.10
2018-12-20T02:41:24.732Z,15.03
2018-12-20T02:43:52.475Z,15.57
2018-12-20T02:46:20.504Z,15.87
2018-12-20T02:48:48.431Z,16.57
2018-12-20T02:51:16.275Z,16.77
2018-12-20T02:53:44.068Z,15.40
2018-12-20T02:56:11.639Z,15.30
2018-12-20T02:58:39.250Z,16.77
2018-12-20T03:01:06.964Z,16.77
2018-12-20T03:03:34.565Z,16.93
2018-12-20T03:06:02.167Z,17.60
2018-12-20T03:08:29.937Z,16.93
2018-12-20T03:10:57.925Z,16.93
2018-12-20T03:13:25.791Z,18.33
2018-12-20T03:15:53.463Z,17.80
2018-12-20T03:18:21.066Z,18.30
2018-12-20T03:20:48.654Z,16.87
2018-12-20T03:23:16.203Z,17.90
2018-12-20T03:25:43.878Z,17.27
2018-12-20T03:28:11.685Z,17.87
2018-12-20T03:30:39.597Z,18.43
2018-12-20T03:33:10.376Z,17.90
2018-12-20T03:35:36.873Z,17.57
2018-12-20T03:38:04.530Z,19.20
2018-12-20T03:40:32.555Z,18.63
2018-12-20T03:43:00.327Z,17.87
2018-12-20T03:45:29.106Z,17.83
2018-12-20T03:47:57.095Z,16.90
2018-12-20T03:50:24.749Z,17.83
2018-12-20T03:52:52.317Z,17.40
2018-12-20T03:55:20.177Z,18.17
2018-12-20T03:57:47.934Z,17.20
2018-12-20T04:00:15.959Z,17.27
2018-12-20T04:02:43.719Z,18.23
2018-12-20T04:05:12.194Z,18.90
2018-12-20T04:07:40.117Z,18.57
2018-12-20T04:10:08.054Z,18.13
2018-12-20T04:12:35.725Z,18.77
2018-12-20T04:15:03.848Z,17.73
2018-12-20T04:17:31.667Z,18.00
2018-12-20T04:19:59.349Z,17.23
2018-12-20T04:22:26.915Z,16.90
2018-12-20T04:24:54.643Z,17.50
2018-12-20T04:27:22.252Z,17.83
2018-12-20T04:29:49.880Z,17.10
2018-12-20T04:32:17.499Z,16.67
2018-12-20T04:34:45.279Z,17.87
2018-12-20T04:37:13.057Z,18.37
2018-12-20T04:39:40.720Z,16.77
2018-12-20T04:42:08.743Z,16.53
2018-12-20T04:44:37.431Z,18.10
2018-12-20T04:47:05.067Z,18.33
2018-12-20T04:49:32.695Z,16.60
2018-12-20T04:52:00.356Z,16.77
2018-12-20T04:54:28.025Z,16.33
2018-12-20T04:56:56.017Z,15.63
2018-12-20T04:59:23.930Z,17.33
2018-12-20T05:01:51.983Z,17.87
2018-12-20T05:04:20.289Z,17.17
2018-12-20T05:06:47.948Z,17.03
2018-12-20T05:09:15.579Z,16.07
2018-12-20T05:11:43.359Z,15.67
2018-12-20T05:14:10.986Z,14.37
2018-12-20T05:16:38.551Z,14.10
2018-12-20T05:19:06.218Z,15.10
2018-12-20T05:21:33.808Z,17.03
2018-12-20T05:24:01.416Z,16.17
2018-12-20T05:26:28.981Z,16.73
2018-12-20T05:28:56.548Z,15.80
2018-12-20T05:31:24.092Z,17.67
2018-12-20T05:33:51.658Z,18.23
2018-12-20T05:36:19.202Z,17.33
2018-12-20T05:38:46.807Z,18.77
2018-12-20T05:41:14.603Z,19.73
2018-12-20T05:43:42.418Z,18.27
2018-12-20T05:46:10.100Z,18.40
2018-12-20T05:48:37.940Z,17.20
2018-12-20T05:51:05.622Z,17.63
2018-12-20T05:53:33.409Z,18.13
2018-12-20T05:56:01.208Z,19.53
2018-12-20T05:58:29.033Z,19.20
2018-12-20T06:00:56.857Z,19.10
2018-12-20T06:03:24.625Z,18.57
2018-12-20T06:05:52.251Z,18.50
2018-12-20T06:08:19.847Z,19.07
2018-12-20T06:10:47.487Z,19.80
2018-12-20T06:13:15.096Z,18.73
2018-12-20T06:15:42.829Z,19.27
2018-12-20T06:18:10.468Z,18.07
2018-12-20T06:20:38.021Z,17.87
2018-12-20T06:23:05.630Z,20.23
2018-12-20T06:25:33.279Z,19.97
2018-12-20T06:28:00.858Z,19.10
2018-12-20T06:30:28.407Z,20.43
2018-12-20T06:32:55.971Z,19.07
2018-12-20T06:35:23.525Z,20.90
2018-12-20T06:37:51.097Z,19.87
2018-12-20T06:40:18.648Z,18.80
2018-12-20T06:42:46.210Z,18.57
2018-12-20T06:45:13.759Z,20.27
2018-12-20T06:47:41.366Z,20.20
2018-12-20T06:50:08.957Z,20.20
2018-12-20T06:52:36.579Z,20.77
2018-12-20T06:55:04.320Z,20.07
2018-12-20T06:57:32.447Z,19.40
2018-12-20T07:00:00.343Z,19.43
2018-12-20T07:02:27.930Z,19.67
2018-12-20T07:04:55.475Z,19.60
2018-12-20T07:07:23.081Z,19.37
2018-12-20T07:09:50.647Z,19.57
2018-12-20T07:12:18.193Z,19.43
2018-12-20T07:14:45.755Z,19.33
2018-12-20T07:17:13.988Z,19.03
2018-12-20T07:19:41.635Z,18.53
2018-12-20T07:22:09.179Z,18.13
2018-12-20T07:24:36.747Z,19.30
2018-12-20T07:27:04.296Z,20.07
2018-12-20T07:29:31.992Z,19.87
2018-12-20T07:31:59.542Z,20.17
2018-12-20T07:34:27.152Z,20.67
2018-12-20T07:36:54.699Z,20.03
2018-12-20T07:39:22.264Z,21.10
2018-12-20T07:41:49.811Z,20.50
2018-12-20T07:44:17.375Z,19.37
2018-12-20T07:46:44.916Z,21.90
2018-12-20T07:49:12.479Z,20.07
2018-12-20T07:51:40.027Z,20.27
2018-12-20T07:54:07.598Z,19.53
2018-12-20T07:56:35.149Z,18.97
2018-12-20T07:59:02.711Z,20.13
2018-12-20T08:01:30.254Z,20.57
2018-12-20T08:03:57.823Z,20.53
2018-12-20T08:06:25.375Z,19.17
2018-12-20T08:08:52.988Z,18.77
2018-12-20T08:11:20.539Z,18.77
2018-12-20T08:13:48.111Z,18.60
2018-12-20T08:16:15.704Z,17.33
2018-12-20T08:18:43.276Z,19.03
2018-12-20T08:21:10.872Z,18.70
2018-12-20T08:23:38.483Z,19.50
2018-12-20T08:26:06.035Z,19.30
2018-12-20T08:28:33.601Z,19.57
2018-12-20T08:31:01.200Z,20.63
2018-12-20T08:33:28.809Z,20.13
2018-12-20T08:35:56.407Z,19.53
2018-12-20T08:38:23.973Z,18.90
2018-12-20T08:40:51.523Z,19.43
2018-12-20T08:43:19.088Z,19.70
2018-12-20T08:45:46.635Z,18.63
2018-12-20T08:48:14.203Z,20.10
2018-12-20T08:50:41.747Z,18.93
2018-12-20T08:53:09.296Z,20.27
2018-12-20T08:55:36.867Z,19.57
2018-12-20T08:58:04.544Z,19.37
2018-12-20T09:00:32.148Z,18.93
2018-12-20T09:02:59.696Z,19.73
2018-12-20T09:05:27.310Z,19.97
2018-12-20T09:07:54.855Z,20.67
2018-12-20T09:10:22.468Z,20.27
2018-12-20T09:12:50.012Z,19.57
2018-12-20T09:15:17.584Z,19.40
2018-12-20T09:17:45.131Z,19.20
2018-12-20T09:20:12.745Z,18.93
2018-12-20T09:22:40.305Z,18.00
2018-12-20T09:25:07.918Z,19.47
2018-12-20T09:27:35.463Z,17.83
2018-12-20T09:30:03.371Z,20.30
2018-12-20T09:32:30.919Z,19.10
2018-12-20T09:34:58.484Z,18.63
2018-12-20T09:37:26.320Z,18.33
2018-12-20T09:39:53.899Z,21.23
2018-12-20T09:42:21.454Z,20.73
2018-12-20T09:44:49.020Z,19.27
2018-12-20T09:47:22.322Z,20.00
2018-12-20T09:49:49.933Z,20.47
2018-12-20T09:52:17.529Z,20.53
2018-12-20T09:54:45.096Z,21.13
2018-12-20T09:57:12.651Z,20.77
2018-12-20T09:59:40.225Z,20.13
2018-12-20T10:02:07.778Z,19.23
2018-12-20T10:04:35.354Z,18.93
2018-12-20T10:07:02.913Z,17.90
2018-12-20T10:09:31.530Z,18.07
2018-12-20T10:11:59.369Z,18.57
2018-12-20T10:14:26.943Z,16.83
2018-12-20T10:16:54.501Z,17.37
2018-12-20T10:19:22.120Z,18.33
2018-12-20T10:21:49.673Z,17.17
2018-12-20T10:24:17.240Z,17.57
2018-12-20T10:26:44.833Z,17.23
2018-12-20T10:29:12.449Z,16.73
2018-12-20T10:31:39.995Z,16.70
2018-12-20T10:34:07.555Z,16.60
2018-12-20T10:36:35.105Z,15.57
2018-12-20T10:39:02.730Z,16.83
2018-12-20T10:41:30.280Z,16.57
2018-12-20T10:43:57.823Z,15.43
2018-12-20T10:46:25.932Z,15.83
2018-12-20T10:48:53.481Z,16.77
2018-12-20T10:51:21.096Z,15.90
2018-12-20T10:53:48.645Z,16.27
2018-12-20T10:56:16.257Z,18.17
2018-12-20T10:58:43.808Z,15.13
2018-12-20T11:01:17.143Z,15.37
2018-12-20T11:03:45.924Z,14.73
2018-12-20T11:06:19.243Z,13.80
2018-12-20T11:12:00.927Z,13.37
2018-12-20T11:14:28.496Z,13.60
2018-12-20T11:16:56.131Z,12.87
2018-12-20T11:19:23.702Z,13.33
2018-12-20T11:21:51.251Z,12.70
2018-12-20T11:24:18.800Z,12.07
2018-12-20T11:26:46.373Z,13.47
2018-12-20T11:29:13.972Z,13.40
2018-12-20T11:31:41.538Z,13.97
2018-12-20T11:34:09.127Z,13.57
2018-12-20T11:36:36.698Z,13.57
2018-12-20T11:39:08.536Z,12.60
2018-12-20T11:41:36.536Z,13.70
2018-12-20T11:44:04.132Z,13.53
2018-12-20T11:46:31.704Z,12.97
2018-12-20T11:48:59.258Z,13.30
2018-12-20T11:51:26.827Z,14.10
2018-12-20T11:53:54.372Z,13.13
2018-12-20T11:56:21.986Z,13.43
2018-12-20T11:58:49.591Z,13.70
2018-12-20T12:01:17.169Z,12.43
2018-12-20T12:03:44.731Z,13.17
2018-12-20T12:06:12.346Z,13.43
2018-12-20T12:08:39.896Z,12.50
2018-12-20T12:11:07.509Z,12.90
2018-12-20T12:13:35.068Z,12.10
2018-12-20T12:16:03.400Z,12.50
2018-12-20T12:18:30.948Z,13.50
2018-12-20T12:20:58.516Z,12.47
2018-12-20T12:23:26.067Z,12.67
2018-12-20T12:25:53.644Z,11.73
2018-12-20T12:28:21.235Z,11.77
2018-12-20T12:30:48.807Z,12.10
2018-12-20T12:33:16.364Z,11.77
2018-12-20T12:35:43.977Z,11.43
2018-12-20T12:38:11.529Z,11.37
2018-12-20T12:40:39.148Z,12.03
2018-12-20T12:43:06.696Z,11.43
2018-12-20T12:45:34.263Z,11.03
2018-12-20T12:48:03.537Z,10.07
2018-12-20T12:50:31.418Z,11.37
2018-12-20T12:52:59.015Z,10.73
2018-12-20T12:55:26.592Z,9.47
2018-12-20T12:57:54.143Z,10.37
2018-12-20T13:00:21.760Z,9.83
2018-12-20T13:02:49.354Z,10.33
2018-12-20T13:05:17.171Z,10.53
2018-12-20T13:07:44.720Z,9.47
2018-12-20T13:10:12.364Z,10.47
2018-12-20T13:12:39.910Z,10.07
2018-12-20T13:15:09.952Z,9.47
2018-12-20T13:17:37.568Z,9.70
2018-12-20T13:20:08.003Z,9.77
2018-12-20T13:22:35.571Z,8.77
2018-12-20T13:25:03.419Z,9.10
2018-12-20T13:27:31.027Z,8.27
2018-12-20T13:29:58.621Z,8.60
2018-12-20T13:32:26.185Z,8.67
2018-12-20T13:34:53.737Z,8.07
2018-12-20T13:37:21.309Z,8.73
2018-12-20T13:39:48.899Z,8.50
2018-12-20T13:42:16.467Z,9.20
2018-12-20T13:44:44.051Z,8.63
2018-12-20T13:47:11.616Z,9.40
2018-12-20T13:49:39.163Z,8.57
2018-12-20T13:52:06.732Z,8.80
2018-12-20T13:54:34.278Z,8.30
2018-12-20T13:57:01.887Z,8.20
2018-12-20T13:59:29.433Z,7.83
2018-12-20T14:01:56.995Z,7.83
2018-12-20T14:04:24.538Z,8.60
2018-12-20T14:06:52.104Z,8.33
2018-12-20T14:09:19.901Z,7.97
2018-12-20T14:11:47.788Z,6.90
2018-12-20T14:14:15.516Z,8.03
2018-12-20T14:16:43.082Z,7.37
2018-12-20T14:19:10.625Z,7.07
2018-12-20T14:21:38.188Z,7.00
2018-12-20T14:24:05.727Z,8.07
2018-12-20T14:26:33.288Z,7.40
2018-12-20T14:29:00.834Z,7.67
2018-12-20T14:31:28.405Z,6.70
2018-12-20T14:33:55.951Z,7.57
2018-12-20T14:36:23.554Z,6.03
2018-12-20T14:38:51.095Z,6.93
2018-12-20T14:41:18.707Z,6.80
2018-12-20T14:43:46.296Z,6.80
2018-12-20T14:46:13.910Z,6.23
2018-12-20T14:48:41.456Z,7.33
2018-12-20T14:51:09.019Z,7.13
2018-12-20T14:53:36.560Z,6.83
2018-12-20T14:56:04.178Z,7.20
2018-12-20T14:58:31.736Z,6.80
2018-12-20T15:00:59.324Z,7.10
2018-12-20T15:03:26.892Z,6.83
2018-12-20T15:05:54.440Z,7.13
2018-12-20T15:08:22.003Z,8.10
2018-12-20T15:10:49.547Z,8.80
2018-12-20T15:13:17.111Z,7.83
2018-12-20T15:15:44.652Z,8.13
2018-12-20T15:18:12.215Z,7.93
2018-12-20T15:20:40.640Z,7.60
2018-12-20T15:23:08.668Z,7.50
2018-12-20T15:25:36.221Z,7.90
2018-12-20T15:28:03.974Z,7.50
2018-12-20T15:30:31.520Z,7.70
2018-12-20T15:32:59.079Z,7.87
2018-12-20T15:35:26.621Z,7.43
2018-12-20T15:37:54.235Z,7.97
2018-12-20T15:40:21.822Z,7.57
2018-12-20T15:42:49.427Z,7.90
2018-12-20T15:45:17.061Z,6.90
2018-12-20T15:47:44.668Z,8.00
2018-12-20T15:50:12.326Z,7.67
2018-12-20T15:52:39.958Z,8.50
2018-12-20T15:55:07.589Z,8.10
2018-12-20T15:57:35.156Z,7.27
2018-12-20T16:00:02.748Z,9.43
2018-12-20T16:02:30.321Z,8.47
2018-12-20T16:04:57.871Z,9.53
2018-12-20T16:07:25.434Z,7.97
2018-12-20T16:09:53.027Z,8.07
2018-12-20T16:12:20.643Z,8.20
2018-12-20T16:14:48.233Z,7.97
2018-12-20T16:17:15.839Z,7.27
2018-12-20T16:19:43.388Z,7.10
2018-12-20T16:22:10.995Z,7.23
2018-12-20T16:24:38.539Z,6.80
2018-12-20T16:27:06.105Z,8.00
2018-12-20T16:29:33.691Z,7.37
2018-12-20T16:32:01.259Z,6.93
2018-12-20T16:34:28.807Z,7.77
2018-12-20T16:36:56.415Z,7.50
2018-12-20T16:39:23.962Z,8.00
2018-12-20T16:41:51.519Z,7.57
2018-12-20T16:44:19.071Z,7.27
2018-12-20T16:46:46.615Z,8.87
2018-12-20T16:49:14.180Z,7.87
2018-12-20T16:51:41.728Z,7.97
2018-12-20T16:54:09.292Z,7.57
2018-12-20T16:56:36.839Z,8.03
2018-12-20T16:59:04.488Z,7.23
2018-12-20T17:01:32.037Z,7.30
2018-12-20T17:03:59.608Z,8.20
2018-12-20T17:06:27.160Z,8.57
2018-12-20T17:08:54.723Z,8.97
2018-12-20T17:11:22.278Z,8.20
2018-12-20T17:13:49.892Z,8.87
2018-12-20T17:16:17.792Z,7.97
2018-12-20T17:18:45.342Z,7.27
2018-12-20T17:21:12.871Z,7.97
2018-12-20T17:23:40.431Z,7.70
2018-12-20T17:26:08.011Z,8.03
2018-12-20T17:28:35.560Z,8.10
2018-12-20T17:31:03.180Z,8.27
2018-12-20T17:33:30.741Z,8.03
2018-12-20T17:35:58.497Z,8.40
2018-12-20T17:38:26.069Z,10.13
2018-12-20T17:40:53.617Z,8.83
2018-12-20T17:43:21.224Z,9.33
2018-12-20T17:45:48.764Z,8.70
2018-12-20T17:48:16.400Z,8.00
2018-12-20T17:50:43.934Z,7.73
2018-12-20T17:53:11.483Z,9.03
2018-12-20T17:55:44.674Z,8.93
2018-12-20T17:58:08.663Z,9.60
2018-12-20T18:00:36.203Z,10.73
2018-12-20T18:03:04.166Z,12.73
2018-12-20T18:05:31.753Z,13.07
2018-12-20T18:07:59.404Z,12.40
2018-12-20T18:10:26.944Z,11.70
2018-12-20T18:12:54.547Z,10.07
2018-12-20T18:15:22.128Z,9.57
2018-12-20T18:17:49.711Z,8.63
2018-12-20T18:20:17.829Z,8.77
2018-12-20T18:22:45.379Z,9.70
2018-12-20T18:25:12.917Z,9.33
2018-12-20T18:27:40.537Z,11.00
2018-12-20T18:30:09.489Z,9.97
2018-12-20T18:32:37.032Z,9.07
2018-12-20T18:35:04.633Z,8.87
2018-12-20T18:37:32.212Z,9.37
2018-12-20T18:39:59.768Z,8.67
2018-12-20T18:42:27.299Z,7.77
2018-12-20T18:44:54.857Z,8.90
2018-12-20T18:47:22.399Z,9.50
2018-12-20T18:49:49.961Z,9.23
2018-12-20T18:52:17.495Z,9.07
2018-12-20T18:54:45.049Z,8.47
2018-12-20T18:57:12.583Z,8.63
2018-12-20T18:59:40.189Z,8.23
2018-12-20T19:02:07.726Z,9.17
2018-12-20T19:04:35.281Z,9.20
2018-12-20T19:07:02.850Z,9.40
2018-12-20T19:09:30.408Z,8.37
2018-12-20T19:11:57.951Z,9.37
2018-12-20T19:14:25.520Z,8.90
2018-12-20T19:16:53.064Z,9.13
2018-12-20T19:19:20.617Z,8.10
2018-12-20T19:21:48.155Z,8.93
2018-12-20T19:24:15.704Z,8.03
2018-12-20T19:26:43.283Z,8.67
2018-12-20T19:29:10.845Z,8.73
2018-12-20T19:31:38.416Z,8.00
2018-12-20T19:34:06.064Z,8.37
2018-12-20T19:36:33.596Z,7.70
2018-12-20T19:39:01.151Z,8.43
2018-12-20T19:41:28.684Z,7.90
2018-12-20T19:43:56.329Z,8.57
2018-12-20T19:46:23.863Z,8.33
2018-12-20T19:48:51.417Z,7.70
2018-12-20T19:51:19.117Z,8.60
2018-12-20T19:53:46.928Z,8.30
2018-12-20T19:56:15.471Z,8.07
2018-12-20T19:58:43.784Z,8.77
2018-12-20T20:01:12.457Z,9.10
2018-12-20T20:03:40.567Z,8.23
2018-12-20T20:06:08.518Z,9.00
2018-12-20T20:08:36.242Z,7.77
2018-12-20T20:11:03.783Z,8.00
2018-12-20T20:13:31.478Z,8.57
2018-12-20T20:15:59.018Z,8.70
2018-12-20T20:18:26.555Z,8.63
2018-12-20T20:20:54.143Z,7.97
2018-12-20T20:23:21.791Z,7.57
2018-12-20T20:25:49.348Z,8.00
2018-12-20T20:28:16.883Z,7.00
2018-12-20T20:30:44.436Z,7.20
2018-12-20T20:33:11.977Z,7.10
2018-12-20T20:35:39.532Z,6.93
2018-12-20T20:38:07.070Z,7.57
2018-12-20T20:40:34.631Z,7.13
2018-12-20T20:43:02.163Z,6.20
2018-12-20T20:45:29.716Z,7.17
2018-12-20T20:47:57.252Z,6.10
2018-12-20T20:50:24.811Z,6.57
2018-12-20T20:52:52.347Z,5.87
2018-12-20T20:55:19.899Z,7.20
2018-12-20T20:57:47.432Z,7.60
2018-12-20T21:00:15.027Z,7.17
2018-12-20T21:02:42.648Z,5.87
2018-12-20T21:05:10.240Z,5.80
2018-12-20T21:07:37.787Z,5.77
2018-12-20T21:10:07.427Z,5.97
2018-12-20T21:12:35.022Z,6.23
2018-12-20T21:15:02.580Z,5.83
2018-12-20T21:17:30.132Z,5.70
2018-12-20T21:19:57.690Z,6.50
2018-12-20T21:22:25.218Z,6.50
2018-12-20T21:24:53.664Z,6.03
2018-12-20T21:27:21.205Z,6.20
2018-12-20T21:29:48.748Z,6.93
2018-12-20T21:32:16.304Z,6.87
2018-12-20T21:34:43.973Z,7.30
2018-12-20T21:37:11.515Z,7.73
2018-12-20T21:39:39.092Z,7.33
2018-12-20T21:42:06.628Z,6.87
2018-12-20T21:44:34.217Z,6.93
2018-12-20T21:47:01.982Z,7.27
2018-12-20T21:49:29.679Z,7.30
2018-12-20T21:51:57.347Z,6.57
2018-12-20T21:54:24.919Z,6.93
2018-12-20T21:56:52.513Z,6.70
2018-12-20T21:59:20.091Z,6.33
2018-12-20T22:01:47.635Z,6.80
2018-12-20T22:04:15.253Z,6.83
2018-12-20T22:06:42.969Z,6.20
2018-12-20T22:09:10.787Z,6.73
2018-12-20T22:11:38.344Z,6.67
2018-12-20T22:14:05.875Z,7.00
2018-12-20T22:16:33.432Z,6.33
2018-12-20T22:19:00.964Z,6.30
2018-12-20T22:21:28.526Z,6.30
2018-12-20T22:23:56.059Z,6.30
2018-12-20T22:26:23.614Z,6.83
2018-12-20T22:28:51.142Z,6.70
2018-12-20T22:31:18.703Z,6.17
2018-12-20T22:33:46.235Z,6.63
2018-12-20T22:36:13.785Z,6.63
2018-12-20T22:38:41.311Z,6.50
2018-12-20T22:41:08.863Z,6.20
2018-12-20T22:43:36.387Z,6.07
2018-12-20T22:46:03.983Z,6.70
2018-12-20T22:48:31.514Z,6.57
2018-12-20T22:50:59.064Z,6.63
2018-12-20T22:53:26.597Z,6.57
2018-12-20T22:55:54.147Z,6.80
2018-12-20T22:58:21.678Z,6.93
2018-12-20T23:00:53.426Z,6.67
2018-12-20T23:03:21.000Z,6.50
2018-12-20T23:05:48.641Z,6.70
2018-12-20T23:08:16.172Z,6.70
2018-12-20T23:10:43.789Z,6.70
2018-12-20T23:13:11.374Z,6.73
2018-12-20T23:15:38.933Z,6.60
2018-12-20T23:18:06.478Z,6.33
2018-12-20T23:20:34.027Z,6.57
2018-12-20T23:23:01.564Z,6.37
2018-12-20T23:28:02.992Z,6.50
2018-12-20T23:30:30.598Z,6.47
2018-12-20T23:32:58.132Z,6.23
2018-12-20T23:35:25.691Z,6.43
2018-12-20T23:37:53.224Z,6.80
2018-12-20T23:40:20.784Z,6.27
2018-12-20T23:42:48.323Z,6.30
2018-12-20T23:45:15.880Z,6.27
2018-12-20T23:47:43.417Z,5.63
2018-12-20T23:50:10.992Z,6.10
2018-12-20T23:52:38.527Z,6.67
2018-12-20T23:55:06.106Z,6.30
2018-12-20T23:57:33.660Z,6.63
